Time;durP1;ratioP1;P1;durP2;ratioP2;P2;SDS_P1;SDS_P2;PMS_P1;PMS_P2;Temp;Humidity;BMP_temperature;BMP_pressure;BME280_temperature;BME280_humidity;BME280_pressure;Samples;Min_cycle;Max_cycle;Signal;HPM_P1;HPM_P2
2021/06/30 00:02:00;;;;;;;3.70;2.10;;;;;;;;;;771063;182;915834;-70
2021/06/30 00:04:26;;;;;;;4.53;2.10;;;;;;;;;;764095;182;917844;-70
2021/06/30 00:06:52;;;;;;;5.33;2.20;;;;;;;;;;762394;179;918926;-70
2021/06/30 00:09:18;;;;;;;9.57;1.93;;;;;;;;;;769820;182;918002;-69
2021/06/30 00:11:43;;;;;;;4.83;3.20;;;;;;;;;;764942;181;921143;-70
2021/06/30 00:14:09;;;;;;;6.00;2.20;;;;;;;;;;766818;182;918308;-69
2021/06/30 00:16:35;;;;;;;3.90;2.47;;;;;;;;;;762051;182;919359;-69
2021/06/30 00:19:01;;;;;;;3.47;2.27;;;;;;;;;;766608;182;918430;-71
2021/06/30 00:21:27;;;;;;;6.60;2.70;;;;;;;;;;763134;182;918412;-72
2021/06/30 00:23:53;;;;;;;8.23;3.37;;;;;;;;;;761290;182;1024971;-71
2021/06/30 00:26:18;;;;;;;4.80;2.40;;;;;;;;;;773444;182;919571;-70
2021/06/30 00:28:44;;;;;;;3.47;2.17;;;;;;;;;;761506;182;919265;-70
2021/06/30 00:31:10;;;;;;;4.93;2.50;;;;;;;;;;764714;181;918580;-70
2021/06/30 00:33:36;;;;;;;5.20;2.17;;;;;;;;;;764728;182;927216;-70
2021/06/30 00:36:02;;;;;;;5.83;2.30;;;;;;;;;;760762;182;919379;-71
2021/06/30 00:38:28;;;;;;;3.58;2.33;;;;;;;;;;766793;182;1040105;-70
2021/06/30 00:40:53;;;;;;;4.33;2.37;;;;;;;;;;769360;182;919073;-69
2021/06/30 00:43:19;;;;;;;7.80;2.70;;;;;;;;;;762776;182;918177;-70
2021/06/30 00:45:45;;;;;;;4.83;2.10;;;;;;;;;;761944;179;919102;-70
2021/06/30 00:48:11;;;;;;;3.30;2.70;;;;;;;;;;760764;182;922818;-70
2021/06/30 00:50:37;;;;;;;8.40;2.47;;;;;;;;;;767340;180;918838;-69
2021/06/30 00:53:03;;;;;;;4.33;2.30;;;;;;;;;;766725;182;916201;-69
2021/06/30 00:55:28;;;;;;;3.93;2.53;;;;;;;;;;764810;180;918425;-70
2021/06/30 00:57:54;;;;;;;7.12;2.40;;;;;;;;;;771253;182;918499;-70
2021/06/30 01:00:20;;;;;;;3.00;2.50;;;;;;;;;;762852;182;918152;-69
2021/06/30 01:02:46;;;;;;;5.43;2.90;;;;;;;;;;759940;182;919002;-71
2021/06/30 01:05:12;;;;;;;6.33;2.63;;;;;;;;;;768217;182;918091;-70
2021/06/30 01:07:40;;;;;;;4.07;2.67;;;;;;;;;;767847;181;919769;-70
2021/06/30 01:10:04;;;;;;;3.40;2.43;;;;;;;;;;762200;181;919315;-70
2021/06/30 01:12:30;;;;;;;4.10;2.57;;;;;;;;;;764636;182;919490;-69
2021/06/30 01:14:56;;;;;;;6.90;2.50;;;;;;;;;;760963;182;919142;-70
2021/06/30 01:17:22;;;;;;;4.50;2.83;;;;;;;;;;766968;182;917473;-71
2021/06/30 01:19:48;;;;;;;3.45;2.55;;;;;;;;;;761909;182;918781;-70
2021/06/30 01:22:13;;;;;;;6.10;3.90;;;;;;;;;;768848;182;896506;-71
2021/06/30 01:24:39;;;;;;;12.33;3.10;;;;;;;;;;763545;182;919235;-70
2021/06/30 01:27:05;;;;;;;4.23;2.30;;;;;;;;;;763689;179;918859;-70
2021/06/30 01:29:31;;;;;;;10.23;2.77;;;;;;;;;;768360;182;920332;-70
2021/06/30 01:31:57;;;;;;;4.73;2.63;;;;;;;;;;764173;179;918998;-70
2021/06/30 01:34:23;;;;;;;9.77;3.30;;;;;;;;;;764890;182;1006696;-70
2021/06/30 01:36:49;;;;;;;4.97;3.33;;;;;;;;;;766883;182;918819;-69
2021/06/30 01:39:14;;;;;;;6.13;3.27;;;;;;;;;;760355;182;918743;-70
2021/06/30 01:41:40;;;;;;;7.57;3.07;;;;;;;;;;765839;179;916950;-70
2021/06/30 01:44:06;;;;;;;5.90;3.73;;;;;;;;;;765333;182;918980;-70
2021/06/30 01:46:32;;;;;;;6.53;3.87;;;;;;;;;;769363;182;919350;-71
2021/06/30 01:48:58;;;;;;;8.35;3.95;;;;;;;;;;763745;182;918945;-70
2021/06/30 01:51:24;;;;;;;6.43;4.33;;;;;;;;;;762053;182;919409;-72
2021/06/30 01:53:49;;;;;;;10.50;4.60;;;;;;;;;;765364;182;918718;-70
2021/06/30 01:56:15;;;;;;;8.23;4.57;;;;;;;;;;764282;179;919091;-70
2021/06/30 01:58:41;;;;;;;10.97;5.73;;;;;;;;;;763634;182;920433;-71
2021/06/30 02:01:09;;;;;;;14.30;7.33;;;;;;;;;;766273;182;918236;-70
2021/06/30 02:03:33;;;;;;;15.30;6.62;;;;;;;;;;760593;182;919545;-70
2021/06/30 02:05:59;;;;;;;8.57;5.90;;;;;;;;;;766142;182;920747;-69
2021/06/30 02:08:24;;;;;;;10.47;7.60;;;;;;;;;;762321;182;1227008;-68
2021/06/30 02:10:50;;;;;;;9.00;6.93;;;;;;;;;;769856;179;919029;-70
2021/06/30 02:13:16;;;;;;;15.40;7.83;;;;;;;;;;767920;182;920845;-70
2021/06/30 02:15:42;;;;;;;9.97;7.30;;;;;;;;;;763409;182;914136;-69
2021/06/30 02:18:08;;;;;;;10.10;7.53;;;;;;;;;;767957;182;916174;-70
2021/06/30 02:20:34;;;;;;;11.77;9.00;;;;;;;;;;759091;179;912768;-69
2021/06/30 02:22:59;;;;;;;16.63;8.30;;;;;;;;;;766342;182;900955;-70
2021/06/30 02:25:25;;;;;;;10.83;7.83;;;;;;;;;;769328;180;912016;-69
2021/06/30 02:27:51;;;;;;;12.20;7.10;;;;;;;;;;761400;182;901517;-69
2021/06/30 02:30:18;;;;;;;9.10;6.40;;;;;;;;;;761779;182;918761;-69
2021/06/30 02:32:44;;;;;;;12.10;7.00;;;;;;;;;;769469;182;920703;-69
2021/06/30 02:35:10;;;;;;;15.10;7.43;;;;;;;;;;767432;182;919900;-69
2021/06/30 02:37:35;;;;;;;13.67;7.23;;;;;;;;;;769944;182;920102;-69
2021/06/30 02:40:01;;;;;;;10.43;7.03;;;;;;;;;;765876;182;922347;-69
2021/06/30 02:42:27;;;;;;;9.73;5.83;;;;;;;;;;769436;182;918978;-69
2021/06/30 02:44:53;;;;;;;7.57;5.70;;;;;;;;;;767421;182;985467;-69
2021/06/30 02:47:19;;;;;;;9.57;5.20;;;;;;;;;;762170;182;927783;-68
2021/06/30 02:49:45;;;;;;;7.40;5.83;;;;;;;;;;768702;182;918555;-69
2021/06/30 02:52:10;;;;;;;9.90;5.93;;;;;;;;;;764589;182;935291;-69
2021/06/30 02:54:36;;;;;;;11.60;6.00;;;;;;;;;;763097;182;918770;-69
2021/06/30 02:57:02;;;;;;;6.47;4.93;;;;;;;;;;767440;181;919538;-69
2021/06/30 02:59:28;;;;;;;7.93;4.83;;;;;;;;;;766127;182;920524;-69
2021/06/30 03:01:54;;;;;;;9.38;5.40;;;;;;;;;;759450;182;919060;-69
2021/06/30 03:04:20;;;;;;;7.40;4.47;;;;;;;;;;763694;182;914488;-68
2021/06/30 03:06:46;;;;;;;8.30;4.20;;;;;;;;;;768886;182;914158;-69
2021/06/30 03:09:11;;;;;;;6.40;4.80;;;;;;;;;;762034;182;915405;-69
2021/06/30 03:11:39;;;;;;;9.52;5.25;;;;;;;;;;760977;182;921168;-69
2021/06/30 03:14:03;;;;;;;11.30;5.67;;;;;;;;;;766331;182;920853;-69
2021/06/30 03:16:29;;;;;;;10.20;5.40;;;;;;;;;;761333;181;919434;-70
2021/06/30 03:18:55;;;;;;;15.03;5.67;;;;;;;;;;764449;182;922009;-68
2021/06/30 03:21:21;;;;;;;11.57;6.00;;;;;;;;;;771164;182;923149;-68
2021/06/30 03:23:46;;;;;;;18.43;5.47;;;;;;;;;;766198;182;915239;-68
2021/06/30 03:26:12;;;;;;;9.43;6.07;;;;;;;;;;764990;180;919035;-69
2021/06/30 03:28:38;;;;;;;12.33;5.90;;;;;;;;;;770348;182;916149;-68
2021/06/30 03:31:04;;;;;;;9.07;6.20;;;;;;;;;;764894;181;916189;-67
2021/06/30 03:33:31;;;;;;;12.27;5.97;;;;;;;;;;764109;181;919621;-68
2021/06/30 03:35:57;;;;;;;8.20;5.90;;;;;;;;;;766529;182;915073;-68
2021/06/30 03:38:23;;;;;;;12.63;6.95;;;;;;;;;;768331;182;915095;-69
2021/06/30 03:40:49;;;;;;;11.13;6.40;;;;;;;;;;759641;182;918775;-68
2021/06/30 03:43:14;;;;;;;13.43;6.73;;;;;;;;;;761560;182;919585;-68
2021/06/30 03:45:40;;;;;;;12.90;7.63;;;;;;;;;;765239;182;937392;-68
2021/06/30 03:48:06;;;;;;;8.83;6.40;;;;;;;;;;763289;182;919207;-68
2021/06/30 03:50:32;;;;;;;9.63;5.87;;;;;;;;;;765059;182;919563;-68
2021/06/30 03:52:58;;;;;;;14.47;7.20;;;;;;;;;;769514;182;1021007;-68
2021/06/30 03:55:24;;;;;;;17.73;6.90;;;;;;;;;;762010;180;919209;-68
2021/06/30 03:57:49;;;;;;;13.30;6.90;;;;;;;;;;763177;182;920137;-68
2021/06/30 04:00:15;;;;;;;14.90;6.77;;;;;;;;;;760646;179;918606;-68
2021/06/30 04:02:41;;;;;;;9.40;6.60;;;;;;;;;;768250;182;919010;-69
2021/06/30 04:05:07;;;;;;;12.30;7.73;;;;;;;;;;765757;179;919420;-69
2021/06/30 04:07:33;;;;;;;11.07;7.03;;;;;;;;;;768721;182;634712;-68
2021/06/30 04:09:59;;;;;;;11.20;7.20;;;;;;;;;;773364;182;633427;-69
2021/06/30 04:12:25;;;;;;;12.77;7.97;;;;;;;;;;763301;182;917881;-69
2021/06/30 04:14:51;;;;;;;22.10;7.55;;;;;;;;;;765342;182;920222;-68
2021/06/30 04:17:17;;;;;;;16.30;8.27;;;;;;;;;;765136;182;918697;-69
2021/06/30 04:19:43;;;;;;;14.43;8.03;;;;;;;;;;767825;182;920117;-70
2021/06/30 04:22:08;;;;;;;13.23;7.63;;;;;;;;;;762295;179;917682;-69
2021/06/30 04:24:34;;;;;;;18.60;8.10;;;;;;;;;;763192;182;918130;-67
2021/06/30 04:27:00;;;;;;;12.00;6.80;;;;;;;;;;766601;182;914161;-68
2021/06/30 04:29:26;;;;;;;13.73;7.53;;;;;;;;;;764479;182;919954;-68
2021/06/30 04:31:52;;;;;;;18.60;6.80;;;;;;;;;;762375;182;918811;-68
2021/06/30 04:34:18;;;;;;;12.23;7.05;;;;;;;;;;771061;182;916787;-69
2021/06/30 04:36:43;;;;;;;13.10;7.50;;;;;;;;;;770987;179;623806;-68
2021/06/30 04:39:09;;;;;;;15.00;7.37;;;;;;;;;;769496;182;630265;-69
2021/06/30 04:41:35;;;;;;;11.73;8.50;;;;;;;;;;771325;180;628091;-69
2021/06/30 04:44:01;;;;;;;13.27;6.90;;;;;;;;;;771526;181;622521;-69
2021/06/30 04:46:27;;;;;;;18.73;7.90;;;;;;;;;;769647;182;642254;-69
2021/06/30 04:48:53;;;;;;;13.33;8.00;;;;;;;;;;767699;182;912334;-69
2021/06/30 04:51:21;;;;;;;20.23;6.77;;;;;;;;;;765460;182;917658;-68
2021/06/30 04:53:46;;;;;;;13.70;6.50;;;;;;;;;;760921;182;944423;-70
2021/06/30 04:56:10;;;;;;;17.00;6.73;;;;;;;;;;765663;182;916095;-69
2021/06/30 04:58:36;;;;;;;8.10;6.83;;;;;;;;;;774355;182;915589;-70
2021/06/30 05:01:02;;;;;;;11.53;6.90;;;;;;;;;;766096;182;917867;-70
2021/06/30 05:03:29;;;;;;;9.33;6.43;;;;;;;;;;765123;182;919268;-70
2021/06/30 05:05:54;;;;;;;11.53;6.20;;;;;;;;;;769957;182;915133;-70
2021/06/30 05:08:19;;;;;;;15.60;6.37;;;;;;;;;;759403;182;1123648;-70
2021/06/30 05:10:45;;;;;;;10.07;6.50;;;;;;;;;;757816;182;920038;-70
2021/06/30 05:13:11;;;;;;;12.57;6.90;;;;;;;;;;763704;182;915821;-70
2021/06/30 05:15:37;;;;;;;8.70;6.50;;;;;;;;;;761162;182;919299;-71
2021/06/30 05:18:03;;;;;;;9.43;6.17;;;;;;;;;;764768;182;1008660;-71
2021/06/30 05:20:29;;;;;;;7.53;5.70;;;;;;;;;;761577;182;918851;-69
2021/06/30 05:22:54;;;;;;;10.10;7.50;;;;;;;;;;766012;182;919292;-70
2021/06/30 05:25:20;;;;;;;13.63;7.10;;;;;;;;;;764830;182;917430;-72
2021/06/30 05:27:46;;;;;;;12.20;5.97;;;;;;;;;;764502;182;914551;-71
2021/06/30 05:30:12;;;;;;;9.13;5.40;;;;;;;;;;771109;182;915673;-71
2021/06/30 05:32:38;;;;;;;12.13;5.13;;;;;;;;;;767036;182;911571;-70
2021/06/30 05:35:04;;;;;;;10.47;4.90;;;;;;;;;;761600;180;921069;-71
2021/06/30 05:37:30;;;;;;;8.98;4.53;;;;;;;;;;767421;182;913738;-72
2021/06/30 05:39:57;;;;;;;5.70;3.73;;;;;;;;;;757296;182;912837;-72
2021/06/30 05:42:22;;;;;;;6.77;3.90;;;;;;;;;;764669;182;943645;-73
2021/06/30 05:44:48;;;;;;;4.67;3.90;;;;;;;;;;767529;182;919140;-73
2021/06/30 05:47:14;;;;;;;10.57;4.33;;;;;;;;;;766199;179;932736;-73
2021/06/30 05:49:39;;;;;;;6.43;3.33;;;;;;;;;;760086;182;916236;-74
2021/06/30 05:52:06;;;;;;;4.60;3.00;;;;;;;;;;764371;182;915284;-72
2021/06/30 05:54:31;;;;;;;5.93;3.70;;;;;;;;;;771896;181;916500;-74
2021/06/30 05:56:57;;;;;;;4.97;3.10;;;;;;;;;;758573;182;915916;-73
2021/06/30 05:59:23;;;;;;;3.47;3.07;;;;;;;;;;762084;182;919797;-72
2021/06/30 06:01:50;;;;;;;5.47;3.20;;;;;;;;;;770916;179;919737;-73
2021/06/30 06:04:16;;;;;;;3.30;2.73;;;;;;;;;;765835;182;918952;-73
2021/06/30 06:06:41;;;;;;;5.20;2.97;;;;;;;;;;764235;182;919017;-72
2021/06/30 06:09:07;;;;;;;4.43;2.80;;;;;;;;;;767560;182;918545;-72
2021/06/30 06:11:33;;;;;;;3.40;2.77;;;;;;;;;;767831;179;919335;-71
2021/06/30 06:13:59;;;;;;;3.63;3.23;;;;;;;;;;767619;182;948434;-71
2021/06/30 06:16:25;;;;;;;6.90;3.75;;;;;;;;;;765332;179;919790;-69
2021/06/30 06:18:51;;;;;;;6.53;3.50;;;;;;;;;;769557;181;1078778;-70
2021/06/30 06:21:18;;;;;;;3.43;3.13;;;;;;;;;;767197;182;933908;-72
2021/06/30 06:23:44;;;;;;;12.60;3.40;;;;;;;;;;759306;182;919549;-70
2021/06/30 06:26:09;;;;;;;5.10;3.77;;;;;;;;;;771101;182;918301;-70
2021/06/30 06:28:35;;;;;;;5.17;3.90;;;;;;;;;;764079;182;918516;-70
2021/06/30 06:31:02;;;;;;;6.30;3.33;;;;;;;;;;762341;182;919026;-71
2021/06/30 06:33:27;;;;;;;3.50;3.20;;;;;;;;;;767445;182;919697;-71
2021/06/30 06:35:53;;;;;;;7.07;4.40;;;;;;;;;;766688;182;918578;-71
2021/06/30 06:38:19;;;;;;;6.53;4.27;;;;;;;;;;767436;182;919416;-70
2021/06/30 06:40:44;;;;;;;4.10;3.43;;;;;;;;;;765395;179;919968;-68
2021/06/30 06:43:10;;;;;;;8.73;3.70;;;;;;;;;;759621;182;926147;-68
2021/06/30 06:45:36;;;;;;;5.27;3.50;;;;;;;;;;763083;182;944389;-71
2021/06/30 06:48:02;;;;;;;7.13;3.83;;;;;;;;;;760742;182;920766;-71
2021/06/30 06:50:28;;;;;;;4.37;2.97;;;;;;;;;;770222;179;918061;-71
2021/06/30 06:52:54;;;;;;;5.80;3.80;;;;;;;;;;764155;182;918679;-69
2021/06/30 06:55:20;;;;;;;4.20;3.33;;;;;;;;;;765706;180;918784;-72
2021/06/30 06:57:45;;;;;;;5.20;3.00;;;;;;;;;;767957;182;917841;-72
2021/06/30 07:00:12;;;;;;;3.40;2.97;;;;;;;;;;762687;182;919522;-70
2021/06/30 07:02:38;;;;;;;4.62;3.30;;;;;;;;;;758932;182;919724;-70
2021/06/30 07:05:04;;;;;;;4.37;3.03;;;;;;;;;;771206;180;866997;-70
2021/06/30 07:07:30;;;;;;;6.20;3.37;;;;;;;;;;773431;181;919108;-71
2021/06/30 07:09:56;;;;;;;5.70;2.60;;;;;;;;;;772276;182;919512;-71
2021/06/30 07:12:22;;;;;;;8.83;3.27;;;;;;;;;;764654;182;918528;-70
2021/06/30 07:14:47;;;;;;;4.70;2.90;;;;;;;;;;770633;182;919033;-71
2021/06/30 07:17:13;;;;;;;5.50;3.17;;;;;;;;;;764871;182;919658;-70
2021/06/30 07:19:39;;;;;;;5.60;3.27;;;;;;;;;;763820;182;919293;-69
2021/06/30 07:22:05;;;;;;;7.93;3.87;;;;;;;;;;768255;182;925007;-72
2021/06/30 07:24:31;;;;;;;6.20;3.43;;;;;;;;;;766535;182;918024;-70
2021/06/30 07:26:57;;;;;;;5.32;3.25;;;;;;;;;;764202;179;1007808;-70
2021/06/30 07:29:22;;;;;;;4.20;3.07;;;;;;;;;;768947;182;894661;-71
2021/06/30 07:31:48;;;;;;;5.80;3.10;;;;;;;;;;767313;179;918974;-69
2021/06/30 07:34:14;;;;;;;6.72;2.97;;;;;;;;;;766953;182;919603;-69
2021/06/30 07:36:40;;;;;;;3.70;3.27;;;;;;;;;;763218;182;919098;-70
2021/06/30 07:39:07;;;;;;;7.40;3.80;;;;;;;;;;770249;182;918475;-69
2021/06/30 07:41:32;;;;;;;6.53;3.40;;;;;;;;;;764624;182;921687;-69
2021/06/30 07:43:58;;;;;;;8.80;3.60;;;;;;;;;;763535;182;1020118;-69
2021/06/30 07:46:23;;;;;;;4.77;3.60;;;;;;;;;;767689;182;918577;-69
2021/06/30 07:48:50;;;;;;;5.00;3.73;;;;;;;;;;765053;182;919070;-69
2021/06/30 07:51:15;;;;;;;5.80;3.87;;;;;;;;;;765595;182;926715;-69
2021/06/30 07:53:42;;;;;;;5.77;3.20;;;;;;;;;;770675;182;919568;-69
2021/06/30 07:56:07;;;;;;;8.57;3.80;;;;;;;;;;767825;180;919160;-69
2021/06/30 07:58:32;;;;;;;8.93;3.80;;;;;;;;;;768420;182;918817;-69
2021/06/30 08:00:58;;;;;;;5.20;3.30;;;;;;;;;;768447;180;918889;-69
2021/06/30 08:03:24;;;;;;;4.37;3.80;;;;;;;;;;762781;182;919275;-70
2021/06/30 08:05:50;;;;;;;4.73;3.07;;;;;;;;;;758554;181;920661;-69
2021/06/30 08:08:16;;;;;;;4.53;3.80;;;;;;;;;;762239;182;918988;-68
2021/06/30 08:10:42;;;;;;;4.97;3.17;;;;;;;;;;769864;182;934967;-68
2021/06/30 08:13:07;;;;;;;11.50;3.73;;;;;;;;;;760942;182;919110;-69
2021/06/30 08:15:33;;;;;;;4.80;3.17;;;;;;;;;;764050;182;917917;-69
2021/06/30 08:17:59;;;;;;;5.93;3.57;;;;;;;;;;772783;180;918366;-68
2021/06/30 08:20:25;;;;;;;4.53;3.03;;;;;;;;;;760258;182;918702;-69
2021/06/30 08:22:51;;;;;;;6.33;3.17;;;;;;;;;;762879;182;922494;-68
2021/06/30 08:25:17;;;;;;;5.00;3.20;;;;;;;;;;768012;182;919937;-69
2021/06/30 08:27:43;;;;;;;3.73;3.13;;;;;;;;;;761410;182;919641;-68
2021/06/30 08:30:10;;;;;;;5.17;3.03;;;;;;;;;;760158;182;918311;-69
2021/06/30 08:32:35;;;;;;;6.40;3.20;;;;;;;;;;763941;182;922093;-69
2021/06/30 08:35:01;;;;;;;4.97;3.30;;;;;;;;;;764923;182;920663;-70
2021/06/30 08:37:27;;;;;;;4.87;3.10;;;;;;;;;;762939;182;919924;-71
2021/06/30 08:39:54;;;;;;;7.27;4.37;;;;;;;;;;764553;182;915090;-69
2021/06/30 08:42:18;;;;;;;3.87;3.47;;;;;;;;;;769678;182;921871;-70
2021/06/30 08:44:44;;;;;;;5.90;3.30;;;;;;;;;;767753;182;919826;-71
2021/06/30 08:47:10;;;;;;;4.90;3.33;;;;;;;;;;763875;181;919130;-71
2021/06/30 08:49:36;;;;;;;4.47;3.27;;;;;;;;;;768429;182;918333;-70
2021/06/30 08:52:02;;;;;;;8.77;3.10;;;;;;;;;;764888;182;918898;-70
2021/06/30 08:54:28;;;;;;;4.10;3.33;;;;;;;;;;764295;182;919918;-71
2021/06/30 08:56:54;;;;;;;6.10;3.20;;;;;;;;;;764295;179;918841;-70
2021/06/30 08:59:20;;;;;;;4.50;3.10;;;;;;;;;;767833;180;918995;-71
2021/06/30 09:01:45;;;;;;;5.90;3.17;;;;;;;;;;762412;182;919083;-72
2021/06/30 09:04:12;;;;;;;3.78;2.90;;;;;;;;;;759838;182;919078;-74
2021/06/30 09:06:37;;;;;;;4.87;3.10;;;;;;;;;;760506;182;919918;-72
2021/06/30 09:09:03;;;;;;;5.00;3.40;;;;;;;;;;758896;182;919561;-70
2021/06/30 09:11:30;;;;;;;6.00;2.90;;;;;;;;;;760662;182;919311;-70
2021/06/30 09:14:00;;;;;;;6.50;3.33;;;;;;;;;;771117;182;918875;-70
2021/06/30 09:16:26;;;;;;;6.93;4.10;;;;;;;;;;765152;182;919707;-71
2021/06/30 09:18:52;;;;;;;3.20;2.90;;;;;;;;;;767182;182;919431;-71
2021/06/30 09:21:23;;;;;;;3.60;2.90;;;;;;;;;;763600;179;925566;-70
2021/06/30 09:24:03;;;;;;;10.73;3.47;;;;;;;;;;767468;182;919081;-69
2021/06/30 09:26:31;;;;;;;3.60;3.07;;;;;;;;;;773030;182;917194;-71
2021/06/30 09:29:01;;;;;;;4.27;3.07;;;;;;;;;;768715;180;918716;-72
2021/06/30 09:31:27;;;;;;;3.37;2.80;;;;;;;;;;764649;181;919576;-70
2021/06/30 09:33:53;;;;;;;3.30;3.00;;;;;;;;;;760081;182;915741;-70
2021/06/30 09:36:19;;;;;;;4.30;3.33;;;;;;;;;;769469;180;906209;-71
2021/06/30 09:38:45;;;;;;;4.60;3.40;;;;;;;;;;762410;180;915758;-71
2021/06/30 09:41:16;;;;;;;3.90;3.20;;;;;;;;;;757781;182;919095;-71
2021/06/30 09:43:42;;;;;;;5.90;3.77;;;;;;;;;;766608;182;919673;-69
2021/06/30 09:46:25;;;;;;;5.90;4.10;;;;;;;;;;762949;182;919173;-69
2021/06/30 09:48:52;;;;;;;5.30;3.57;;;;;;;;;;762974;182;919818;-72
2021/06/30 09:51:18;;;;;;;4.20;3.40;;;;;;;;;;759115;182;919248;-70
2021/06/30 09:53:44;;;;;;;5.13;2.83;;;;;;;;;;761851;182;919856;-70
2021/06/30 09:56:10;;;;;;;4.50;3.03;;;;;;;;;;766665;180;918605;-70
2021/06/30 09:58:35;;;;;;;3.30;2.83;;;;;;;;;;764262;182;920096;-72
2021/06/30 10:01:07;;;;;;;6.10;3.50;;;;;;;;;;763782;182;918805;-71
2021/06/30 10:03:38;;;;;;;3.90;3.17;;;;;;;;;;767799;182;918375;-72
2021/06/30 10:06:03;;;;;;;4.83;3.00;;;;;;;;;;765645;182;918211;-74
2021/06/30 10:08:29;;;;;;;8.40;3.30;;;;;;;;;;762900;182;919469;-73
2021/06/30 10:10:55;;;;;;;4.10;2.70;;;;;;;;;;761067;182;1020596;-73
2021/06/30 10:13:21;;;;;;;7.13;3.30;;;;;;;;;;772140;182;905229;-70
2021/06/30 10:15:46;;;;;;;3.40;3.10;;;;;;;;;;764324;182;919925;-71
2021/06/30 10:18:12;;;;;;;4.83;4.33;;;;;;;;;;763512;182;920802;-75
2021/06/30 10:20:38;;;;;;;4.57;3.20;;;;;;;;;;770109;180;917753;-70
2021/06/30 10:23:04;;;;;;;5.20;3.40;;;;;;;;;;761135;182;918576;-71
2021/06/30 10:25:30;;;;;;;4.43;3.95;;;;;;;;;;759557;181;1027015;-72
2021/06/30 10:27:56;;;;;;;4.47;3.80;;;;;;;;;;767703;182;914533;-72
2021/06/30 10:30:21;;;;;;;3.77;3.30;;;;;;;;;;766989;179;907623;-72
2021/06/30 10:32:53;;;;;;;5.27;4.77;;;;;;;;;;761197;182;916407;-74
2021/06/30 10:35:22;;;;;;;4.13;3.70;;;;;;;;;;762049;182;916153;-72
2021/06/30 10:37:45;;;;;;;4.30;3.50;;;;;;;;;;770663;182;1021865;-73
2021/06/30 10:40:11;;;;;;;4.73;3.83;;;;;;;;;;765355;180;920605;-73
2021/06/30 10:42:49;;;;;;;3.90;3.47;;;;;;;;;;765105;181;1020608;-73
2021/06/30 10:45:17;;;;;;;4.20;3.60;;;;;;;;;;764469;179;918805;-73
2021/06/30 10:47:47;;;;;;;3.90;3.50;;;;;;;;;;772599;182;916909;-71
2021/06/30 10:50:18;;;;;;;5.83;3.27;;;;;;;;;;765877;179;918001;-71
2021/06/30 10:52:46;;;;;;;3.73;3.20;;;;;;;;;;766735;182;917838;-74
2021/06/30 10:55:18;;;;;;;4.17;3.60;;;;;;;;;;765006;182;917975;-73
2021/06/30 10:57:43;;;;;;;4.93;3.00;;;;;;;;;;768555;182;916498;-75
2021/06/30 11:00:12;;;;;;;6.47;3.00;;;;;;;;;;757555;179;917572;-73
2021/06/30 11:02:38;;;;;;;3.93;3.43;;;;;;;;;;764556;182;919357;-72
2021/06/30 11:05:10;;;;;;;3.43;2.90;;;;;;;;;;763515;182;996534;-73
2021/06/30 11:07:35;;;;;;;7.73;4.13;;;;;;;;;;768896;182;919133;-71
2021/06/30 11:10:07;;;;;;;5.13;3.40;;;;;;;;;;766833;182;919472;-74
2021/06/30 11:12:39;;;;;;;4.50;3.47;;;;;;;;;;767617;182;918184;-73
2021/06/30 11:15:05;;;;;;;4.37;3.93;;;;;;;;;;760084;182;919152;-73
2021/06/30 11:17:33;;;;;;;11.50;3.80;;;;;;;;;;761521;183;919511;-73
2021/06/30 11:19:58;;;;;;;4.70;3.57;;;;;;;;;;756963;183;815883;-74
2021/06/30 11:22:25;;;;;;;4.28;3.20;;;;;;;;;;755498;183;919124;-74
2021/06/30 11:24:50;;;;;;;3.40;3.10;;;;;;;;;;758398;183;918668;-74
2021/06/30 11:27:34;;;;;;;3.30;2.80;;;;;;;;;;761935;183;917544;-76
2021/06/30 11:30:02;;;;;;;4.10;3.17;;;;;;;;;;774990;182;917955;-73
2021/06/30 11:32:45;;;;;;;4.63;3.17;;;;;;;;;;767282;182;919415;-73
2021/06/30 11:35:26;;;;;;;6.13;3.27;;;;;;;;;;765165;180;919128;-73
2021/06/30 11:37:56;;;;;;;3.40;3.07;;;;;;;;;;764513;182;918992;-74
2021/06/30 11:40:25;;;;;;;4.37;3.03;;;;;;;;;;761983;182;917351;-75
2021/06/30 11:42:49;;;;;;;3.93;3.10;;;;;;;;;;767190;182;919588;-73
2021/06/30 11:45:19;;;;;;;3.83;2.90;;;;;;;;;;766507;182;868889;-74
2021/06/30 11:47:46;;;;;;;3.20;2.90;;;;;;;;;;761380;182;919246;-74
2021/06/30 11:50:16;;;;;;;6.33;2.97;;;;;;;;;;762943;182;921218;-75
2021/06/30 11:52:36;;;;;;;3.80;3.20;;;;;;;;;;771930;181;918672;-75
2021/06/30 11:55:02;;;;;;;3.30;3.00;;;;;;;;;;768769;181;918681;-76
2021/06/30 11:57:28;;;;;;;3.43;2.93;;;;;;;;;;767579;182;919008;-74
2021/06/30 11:59:59;;;;;;;6.40;2.97;;;;;;;;;;769287;182;920135;-74
2021/06/30 12:02:25;;;;;;;4.30;2.80;;;;;;;;;;766205;182;917408;-74
2021/06/30 12:04:51;;;;;;;4.33;3.00;;;;;;;;;;769334;182;814317;-75
2021/06/30 12:07:17;;;;;;;3.00;2.60;;;;;;;;;;767334;182;944772;-70
2021/06/30 12:09:43;;;;;;;2.92;2.33;;;;;;;;;;770342;182;919489;-73
2021/06/30 12:12:09;;;;;;;4.30;3.10;;;;;;;;;;765771;182;916910;-74
2021/06/30 12:14:36;;;;;;;3.00;2.40;;;;;;;;;;763465;182;915224;-76
2021/06/30 12:17:03;;;;;;;5.30;2.67;;;;;;;;;;768148;179;914748;-75
2021/06/30 12:19:30;;;;;;;3.37;2.30;;;;;;;;;;758688;182;918510;-73
2021/06/30 12:21:55;;;;;;;3.70;2.17;;;;;;;;;;748744;182;917811;-73
2021/06/30 12:24:21;;;;;;;3.30;2.77;;;;;;;;;;739468;187;918665;-75
2021/06/30 12:26:53;;;;;;;3.83;2.90;;;;;;;;;;744320;187;917685;-72
2021/06/30 12:29:19;;;;;;;4.20;2.80;;;;;;;;;;738101;186;918752;-73
2021/06/30 12:31:45;;;;;;;3.87;2.53;;;;;;;;;;740801;186;919419;-73
2021/06/30 12:34:11;;;;;;;6.00;2.77;;;;;;;;;;744663;186;921088;-73
2021/06/30 12:36:36;;;;;;;3.60;2.23;;;;;;;;;;739888;186;918881;-71
2021/06/30 12:39:08;;;;;;;3.47;2.30;;;;;;;;;;738287;187;1009120;-71
2021/06/30 12:41:34;;;;;;;3.12;2.45;;;;;;;;;;733960;187;916822;-70
2021/06/30 12:44:00;;;;;;;4.10;2.40;;;;;;;;;;747386;187;916620;-71
2021/06/30 12:46:26;;;;;;;5.80;2.43;;;;;;;;;;739723;187;918627;-73
2021/06/30 12:48:51;;;;;;;3.87;2.73;;;;;;;;;;737856;186;918806;-70
2021/06/30 12:51:22;;;;;;;3.70;2.40;;;;;;;;;;742973;189;918456;-70
2021/06/30 12:53:44;;;;;;;3.10;2.27;;;;;;;;;;739347;186;919231;-72
2021/06/30 12:56:10;;;;;;;3.37;2.30;;;;;;;;;;737339;185;1021805;-71
2021/06/30 12:58:36;;;;;;;4.63;2.30;;;;;;;;;;739412;186;919044;-70
2021/06/30 13:01:02;;;;;;;4.20;2.10;;;;;;;;;;744351;189;901201;-73
2021/06/30 13:03:27;;;;;;;2.90;2.30;;;;;;;;;;742580;186;920621;-72
2021/06/30 13:05:53;;;;;;;4.20;2.17;;;;;;;;;;741285;186;921733;-72
2021/06/30 13:08:25;;;;;;;2.60;2.03;;;;;;;;;;744968;189;915785;-72
2021/06/30 13:10:57;;;;;;;2.20;1.77;;;;;;;;;;740737;186;916299;-73
2021/06/30 13:13:23;;;;;;;4.37;2.17;;;;;;;;;;740216;186;915815;-72
2021/06/30 13:15:48;;;;;;;3.00;2.37;;;;;;;;;;739140;186;916377;-72
2021/06/30 13:18:14;;;;;;;2.40;1.80;;;;;;;;;;743817;186;919312;-72
2021/06/30 13:20:40;;;;;;;3.20;2.10;;;;;;;;;;738441;186;914661;-72
2021/06/30 13:23:06;;;;;;;3.10;1.83;;;;;;;;;;737573;187;918629;-72
2021/06/30 13:25:39;;;;;;;2.87;1.70;;;;;;;;;;743717;187;918099;-72
2021/06/30 13:28:05;;;;;;;5.83;2.10;;;;;;;;;;742183;186;918265;-71
2021/06/30 13:35:33;;;;;;;5.43;2.00;;;;;;;;;;744511;187;918786;-71
2021/06/30 13:37:59;;;;;;;2.53;1.90;;;;;;;;;;741946;186;919518;-72
2021/06/30 13:40:25;;;;;;;4.83;1.73;;;;;;;;;;740286;187;919053;-70
2021/06/30 13:42:51;;;;;;;2.30;1.60;;;;;;;;;;737508;186;918108;-72
2021/06/30 13:45:16;;;;;;;3.53;1.90;;;;;;;;;;740394;187;917160;-71
2021/06/30 13:47:43;;;;;;;4.33;1.97;;;;;;;;;;744093;186;919210;-73
2021/06/30 13:50:08;;;;;;;3.50;2.50;;;;;;;;;;745427;187;918846;-70
2021/06/30 13:52:34;;;;;;;2.53;2.10;;;;;;;;;;743917;187;1074584;-72
2021/06/30 13:55:00;;;;;;;3.17;1.90;;;;;;;;;;741076;186;919227;-71
2021/06/30 13:57:26;;;;;;;2.70;1.90;;;;;;;;;;737289;189;918556;-68
2021/06/30 13:59:51;;;;;;;5.10;1.73;;;;;;;;;;745745;187;919342;-71
2021/06/30 14:02:17;;;;;;;3.50;1.70;;;;;;;;;;739215;187;918734;-70
2021/06/30 14:04:43;;;;;;;4.17;2.00;;;;;;;;;;739349;187;919178;-70
2021/06/30 14:07:09;;;;;;;5.45;2.20;;;;;;;;;;736271;187;919851;-70
2021/06/30 14:09:35;;;;;;;8.70;1.97;;;;;;;;;;743522;184;917351;-71
2021/06/30 14:12:01;;;;;;;3.80;1.77;;;;;;;;;;728139;187;919626;-71
2021/06/30 14:14:26;;;;;;;2.40;1.80;;;;;;;;;;739219;186;919070;-70
2021/06/30 14:16:54;;;;;;;2.67;1.87;;;;;;;;;;745425;186;919608;-69
2021/06/30 14:19:18;;;;;;;3.00;1.70;;;;;;;;;;741057;186;919140;-70
2021/06/30 14:21:44;;;;;;;6.60;2.10;;;;;;;;;;739114;186;916309;-71
2021/06/30 14:24:10;;;;;;;2.37;1.60;;;;;;;;;;744039;186;919143;-69
2021/06/30 14:26:36;;;;;;;4.40;1.60;;;;;;;;;;739220;188;1123691;-72